createdAt,value
2017-01-16T11:06:30.910Z,700
2017-01-16T11:07:41.783Z,648
2017-01-16T11:08:52.568Z,740
2017-01-16T11:10:03.373Z,772
2017-01-16T11:11:14.196Z,780
2017-01-16T11:12:25.408Z,800
2017-01-16T11:13:36.263Z,856
2017-01-16T11:14:47.208Z,900
2017-01-16T11:15:58.100Z,984
2017-01-16T11:17:09.124Z,920
2017-01-16T11:18:20.253Z,768
2017-01-16T11:19:31.178Z,980
2017-01-16T11:20:42.126Z,968
2017-01-16T11:21:52.996Z,972
2017-01-16T11:23:04.238Z,1076
2017-01-16T11:24:15.352Z,1016
2017-01-16T11:25:26.222Z,1036
2017-01-16T11:26:37.213Z,824
2017-01-16T11:27:48.175Z,760
2017-01-16T11:28:59.276Z,768
2017-01-16T11:30:10.813Z,784
2017-01-16T11:31:21.980Z,728
2017-01-16T11:32:32.816Z,780
2017-01-16T11:33:43.861Z,780
2017-01-16T11:34:54.886Z,760
2017-01-16T11:36:06.215Z,736
2017-01-16T11:37:17.053Z,772
2017-01-16T11:38:27.984Z,832
2017-01-16T11:39:53.559Z,784
2017-01-16T11:41:04.908Z,772
2017-01-16T11:42:15.717Z,836
2017-01-16T11:43:26.750Z,712
2017-01-16T11:44:37.685Z,768
2017-01-16T11:45:48.724Z,788
2017-01-16T11:47:00.344Z,784
2017-01-16T11:49:36.569Z,792
2017-01-16T11:50:47.489Z,772
2017-01-16T11:51:58.732Z,884
2017-01-16T11:53:09.594Z,964
2017-01-16T11:54:20.385Z,856
2017-01-16T11:55:31.174Z,840
2017-01-16T11:56:41.959Z,924
2017-01-16T11:57:52.753Z,864
2017-01-16T11:59:03.538Z,748
2017-01-16T12:00:14.328Z,796
2017-01-16T12:01:25.115Z,816
2017-01-16T12:02:35.904Z,824
2017-01-16T12:03:46.694Z,1632
2017-01-16T12:04:58.127Z,940
2017-01-16T12:06:08.929Z,1244
2017-01-16T12:07:19.733Z,1552
2017-01-16T12:08:30.563Z,856
2017-01-16T12:09:41.412Z,856
2017-01-16T12:10:52.419Z,948
2017-01-16T12:12:04.067Z,828
2017-01-16T12:13:15.369Z,856
2017-01-16T12:14:26.585Z,824
2017-01-16T12:15:37.806Z,840
2017-01-16T12:16:48.718Z,972
2017-01-16T12:17:59.605Z,1180
2017-01-16T12:19:10.632Z,1228
2017-01-16T12:20:21.625Z,1124
2017-01-16T12:21:32.835Z,1360
2017-01-16T12:22:44.061Z,1036
2017-01-16T12:23:55.079Z,988
2017-01-16T12:25:05.981Z,1020
2017-01-16T12:26:16.889Z,1808
2017-01-16T12:27:28.311Z,1276
2017-01-16T12:28:39.323Z,1180
2017-01-16T12:29:50.320Z,1248
2017-01-16T12:31:01.301Z,2040
2017-01-16T12:32:12.312Z,1924
2017-01-16T12:33:23.666Z,1760
2017-01-16T12:34:35.001Z,1732
2017-01-16T12:35:46.123Z,1336
2017-01-16T12:36:57.134Z,1248
2017-01-16T12:38:08.049Z,2088
2017-01-16T12:39:20.238Z,2048
2017-01-16T12:40:31.359Z,1984
2017-01-16T12:41:42.190Z,1868
2017-01-16T12:42:52.992Z,1948
2017-01-16T12:44:04.417Z,1636
2017-01-16T12:45:15.480Z,1796
2017-01-16T12:46:26.582Z,1860
2017-01-16T12:47:37.421Z,1972
2017-01-16T12:48:48.325Z,1216
2017-01-16T12:49:59.437Z,1088
2017-01-16T12:51:10.802Z,1196
2017-01-16T12:52:21.721Z,2408
2017-01-16T12:53:33.196Z,2464
2017-01-16T12:54:45.019Z,2208
2017-01-16T12:55:55.856Z,2320
2017-01-16T12:57:07.441Z,2444
2017-01-16T12:58:33.040Z,2456
2017-01-16T12:59:44.041Z,2500
2017-01-16T13:00:55.309Z,2548
2017-01-16T13:02:06.713Z,2408
2017-01-16T13:03:17.623Z,1156
2017-01-16T13:04:28.658Z,964
2017-01-16T13:05:39.690Z,864
2017-01-16T13:06:50.690Z,912
2017-01-16T13:08:02.869Z,1044
2017-01-16T13:09:13.788Z,1196
2017-01-16T13:11:51.375Z,1004
2017-01-16T13:13:02.744Z,1384
2017-01-16T13:14:13.958Z,1356
2017-01-16T13:15:25.053Z,2816
2017-01-16T13:16:35.853Z,2168
2017-01-16T13:17:46.695Z,2692
2017-01-16T13:18:57.695Z,2608
2017-01-16T13:20:08.493Z,2692
2017-01-16T13:21:19.294Z,2580
2017-01-16T13:22:30.099Z,1672
2017-01-16T13:23:40.913Z,2496
2017-01-16T13:24:51.968Z,2564
2017-01-16T13:26:02.780Z,2576
2017-01-16T13:27:13.591Z,2576
2017-01-16T13:28:24.382Z,1568
2017-01-16T13:29:35.185Z,2704
2017-01-16T13:30:46.187Z,2668
2017-01-16T13:31:56.980Z,2652
2017-01-16T13:33:07.776Z,2504
2017-01-16T13:34:18.566Z,2564
2017-01-16T13:35:29.365Z,2684
2017-01-16T13:36:40.444Z,2452
2017-01-16T13:37:51.286Z,2496
2017-01-16T13:39:02.088Z,2588
2017-01-16T13:40:12.936Z,2680
2017-01-16T13:41:23.736Z,2844
2017-01-16T13:42:34.533Z,3016
2017-01-16T13:43:45.346Z,2900
2017-01-16T13:44:56.195Z,3108
2017-01-16T13:46:07.027Z,3112
2017-01-16T13:47:17.825Z,1472
2017-01-16T13:48:28.868Z,3264
2017-01-16T13:49:39.664Z,2228
2017-01-16T13:50:50.459Z,3056
2017-01-16T13:52:01.249Z,2812
2017-01-16T13:53:12.054Z,1856
2017-01-16T13:54:22.886Z,3008
2017-01-16T13:55:33.693Z,1632
2017-01-16T13:56:44.500Z,1636
2017-01-16T13:57:55.306Z,2628
2017-01-16T13:59:06.103Z,1960
2017-01-16T14:00:17.263Z,2704
2017-01-16T14:01:42.538Z,1512
2017-01-16T14:02:53.332Z,2380
2017-01-16T14:04:04.129Z,1932
2017-01-16T14:05:29.406Z,1964
2017-01-16T14:06:40.198Z,2600
2017-01-16T14:07:50.990Z,2528
2017-01-16T14:09:01.786Z,2476
2017-01-16T14:10:12.780Z,2356
2017-01-16T14:12:49.092Z,1576
2017-01-16T14:13:59.983Z,2564
2017-01-16T14:15:10.826Z,1680
2017-01-16T14:16:21.655Z,2056
2017-01-16T14:17:32.455Z,1652
2017-01-16T14:18:43.253Z,1372
2017-01-16T14:19:54.681Z,1320
2017-01-16T14:21:05.472Z,2000
2017-01-16T14:22:16.268Z,1472
2017-01-16T14:23:27.061Z,1768
2017-01-16T14:24:37.881Z,2324
2017-01-16T14:26:03.155Z,2316
2017-01-16T14:27:28.425Z,2296
2017-01-16T14:28:39.223Z,2180
2017-01-16T14:30:04.493Z,2184
2017-01-16T14:31:15.305Z,2204
2017-01-16T14:33:51.383Z,2056
2017-01-16T14:35:02.192Z,2052
2017-01-16T14:36:13.009Z,1512
2017-01-16T14:37:23.908Z,1368
2017-01-16T14:38:35.351Z,1880
2017-01-16T14:39:46.179Z,1252
2017-01-16T14:42:22.307Z,1412
2017-01-16T14:43:33.106Z,1304
2017-01-16T14:44:43.935Z,1768
2017-01-16T14:45:54.743Z,1820
2017-01-16T14:47:05.540Z,1748
2017-01-16T14:48:16.597Z,1672
2017-01-16T14:49:27.393Z,1592
2017-01-16T14:50:38.190Z,1580
2017-01-16T14:51:49.171Z,1552
2017-01-16T14:52:59.989Z,1556
2017-01-16T14:54:10.781Z,1544
2017-01-16T14:55:21.573Z,1520
2017-01-16T14:56:32.372Z,1504
2017-01-16T14:57:57.640Z,1488
2017-01-16T14:59:08.794Z,1480
2017-01-16T15:00:19.594Z,1460
2017-01-16T15:01:30.393Z,1564
2017-01-16T15:02:42.203Z,1600
2017-01-16T15:03:53.046Z,1704
2017-01-16T15:05:18.318Z,1792
2017-01-16T15:06:29.136Z,1764
2017-01-16T15:07:39.931Z,1852
2017-01-16T15:08:50.722Z,1920
2017-01-16T15:10:01.715Z,1956
2017-01-16T15:11:12.507Z,2032
2017-01-16T15:12:23.294Z,1996
2017-01-16T15:13:34.096Z,1540
2017-01-16T15:16:10.168Z,1712
2017-01-16T15:17:20.964Z,1808
2017-01-16T15:18:31.769Z,1704
2017-01-16T15:19:42.561Z,1804
2017-01-16T15:20:53.708Z,2864
2017-01-16T15:22:04.505Z,2816
2017-01-16T15:23:15.341Z,2884
2017-01-16T15:24:26.136Z,2920
2017-01-16T15:25:36.932Z,2968
2017-01-16T15:26:47.983Z,2968
2017-01-16T15:27:58.773Z,2848
2017-01-16T15:29:09.569Z,2000
2017-01-16T15:30:20.370Z,2924
2017-01-16T15:31:31.161Z,2900
2017-01-16T15:32:41.958Z,2572
2017-01-16T15:33:52.754Z,1480
2017-01-16T15:35:03.556Z,2972
2017-01-16T15:36:14.375Z,2988
2017-01-16T15:37:39.647Z,2880
2017-01-16T15:38:50.457Z,2960
2017-01-16T15:40:01.288Z,2992
2017-01-16T15:41:12.101Z,2972
2017-01-16T15:42:23.520Z,2880
2017-01-16T15:43:34.316Z,2808
2017-01-16T15:44:45.122Z,1636
2017-01-16T15:47:21.224Z,2708
2017-01-16T15:48:32.228Z,2660
2017-01-16T15:49:43.045Z,2716
2017-01-16T15:50:53.851Z,2688
2017-01-16T15:52:04.655Z,2704
2017-01-16T15:53:15.479Z,2692
2017-01-16T15:54:26.521Z,2696
2017-01-16T15:55:37.343Z,2656
2017-01-16T15:57:02.618Z,2628
2017-01-16T15:58:13.425Z,2628
2017-01-16T15:59:24.572Z,2608
2017-01-16T16:02:00.642Z,1196
2017-01-16T16:03:11.470Z,2496
2017-01-16T16:05:47.579Z,2296
2017-01-16T16:06:58.392Z,1240
2017-01-16T16:08:09.190Z,1212
2017-01-16T16:09:19.985Z,1220
2017-01-16T16:10:30.990Z,1140
2017-01-16T16:11:41.790Z,2244
2017-01-16T16:12:52.594Z,1044
2017-01-16T16:14:04.019Z,1200
2017-01-16T16:15:14.847Z,1492
2017-01-16T16:16:26.738Z,2332
2017-01-16T16:17:52.029Z,2300
2017-01-16T16:19:03.439Z,2112
2017-01-16T16:20:14.236Z,2132
2017-01-16T16:21:25.032Z,2032
2017-01-16T16:22:35.826Z,1004
2017-01-16T16:23:46.625Z,1732
2017-01-16T16:24:57.418Z,1052
2017-01-16T16:26:08.231Z,1112
2017-01-16T16:27:19.055Z,1040
2017-01-16T16:28:29.856Z,992
2017-01-16T16:29:40.647Z,1132
2017-01-16T16:30:51.457Z,1128
2017-01-16T16:32:02.249Z,1184
2017-01-16T16:33:13.044Z,1204
2017-01-16T16:34:23.840Z,1344
2017-01-16T16:35:34.624Z,1568
2017-01-16T16:36:45.416Z,2244
2017-01-16T16:38:10.684Z,2176
2017-01-16T16:39:21.472Z,1392
2017-01-16T16:40:32.265Z,1308
2017-01-16T16:43:08.345Z,756
2017-01-16T16:44:19.395Z,640
2017-01-16T16:45:30.193Z,600
2017-01-16T16:46:41.024Z,576
2017-01-16T16:48:06.298Z,528
2017-01-16T16:49:17.345Z,480
2017-01-16T16:50:28.146Z,464
2017-01-16T16:51:38.941Z,512
2017-01-16T16:53:04.219Z,516
2017-01-16T16:54:15.417Z,620
2017-01-16T16:55:26.215Z,652
2017-01-16T16:56:37.020Z,688
2017-01-16T16:57:47.816Z,696
2017-01-16T16:58:58.630Z,736
2017-01-16T17:00:09.781Z,756
2017-01-16T17:01:20.572Z,756
2017-01-16T17:02:31.389Z,768
2017-01-16T17:03:42.205Z,776
2017-01-16T17:04:53.010Z,816
2017-01-16T17:06:03.815Z,816
2017-01-16T17:07:14.613Z,808
2017-01-16T17:08:25.416Z,820
2017-01-16T17:09:50.699Z,840
2017-01-16T17:11:01.761Z,832
2017-01-16T17:12:27.036Z,816
2017-01-16T17:13:37.840Z,780
2017-01-16T17:15:03.105Z,756
2017-01-16T17:16:13.900Z,720
2017-01-16T17:17:24.685Z,764
2017-01-16T17:18:35.474Z,776
2017-01-16T17:19:46.268Z,820
2017-01-16T17:20:57.056Z,844
2017-01-16T17:22:08.195Z,860
2017-01-16T17:23:18.979Z,828
2017-01-16T17:24:29.768Z,844
2017-01-16T17:25:40.561Z,840
2017-01-16T17:26:51.346Z,824
2017-01-16T17:28:02.389Z,828
2017-01-16T17:29:13.179Z,812
2017-01-16T17:30:23.962Z,804
2017-01-16T17:31:34.751Z,804
2017-01-16T17:32:45.541Z,780
2017-01-16T17:33:56.330Z,768
2017-01-16T17:35:07.119Z,756
2017-01-16T17:36:17.912Z,744
2017-01-16T17:37:28.710Z,708
2017-01-16T17:38:39.501Z,692
2017-01-16T17:39:50.309Z,692
2017-01-16T17:41:30.052Z,712
2017-01-16T17:42:40.860Z,728
2017-01-16T17:43:51.652Z,760
2017-01-16T17:46:27.724Z,808
2017-01-16T17:47:38.518Z,828
2017-01-16T17:48:49.310Z,848
2017-01-16T17:50:14.836Z,828
2017-01-16T17:51:25.626Z,760
2017-01-16T17:52:37.038Z,716
2017-01-16T17:53:47.845Z,692
2017-01-16T17:56:38.409Z,680
2017-01-16T17:57:49.237Z,716
2017-01-16T17:59:00.029Z,748
2017-01-16T18:00:10.830Z,816
2017-01-16T18:01:21.640Z,852
2017-01-16T18:02:32.445Z,828
2017-01-16T18:03:43.244Z,816
2017-01-16T18:04:54.660Z,804
2017-01-16T18:06:05.456Z,736
2017-01-16T18:07:16.252Z,732
2017-01-16T18:08:27.048Z,684
2017-01-16T18:09:37.839Z,648
2017-01-16T18:10:49.250Z,644
2017-01-16T18:12:00.874Z,564
2017-01-16T18:13:11.669Z,492
2017-01-16T18:14:22.464Z,492
2017-01-16T18:15:33.262Z,516
2017-01-16T18:16:44.053Z,444
2017-01-16T18:17:54.843Z,400
2017-01-16T18:19:05.653Z,352
2017-01-16T18:20:46.016Z,296
2017-01-16T18:21:56.806Z,264
2017-01-16T18:23:22.065Z,248
2017-01-16T18:24:32.850Z,240
2017-01-16T18:25:43.636Z,252
2017-01-16T18:27:23.381Z,256
2017-01-16T18:28:34.175Z,244
2017-01-16T18:29:44.959Z,236
2017-01-16T18:31:10.223Z,220
2017-01-16T18:32:21.039Z,216
2017-01-16T18:33:31.822Z,208
2017-01-16T18:34:42.647Z,204
2017-01-16T18:35:54.036Z,208
2017-01-16T18:37:05.031Z,216
2017-01-16T18:38:15.824Z,220
2017-01-16T18:39:26.616Z,212
2017-01-16T18:40:37.607Z,200
2017-01-16T18:41:48.413Z,188
2017-01-16T18:43:13.690Z,172
2017-01-16T18:44:24.483Z,160
2017-01-16T18:45:35.484Z,156
2017-01-16T18:46:46.274Z,152
2017-01-16T18:47:57.065Z,144
2017-01-16T18:49:08.066Z,132
2017-01-16T18:50:20.321Z,120
2017-01-16T18:51:31.112Z,112
2017-01-16T18:52:56.379Z,112
2017-01-16T18:54:07.175Z,116
2017-01-16T18:55:17.966Z,128
2017-01-16T18:56:28.755Z,144
2017-01-16T18:57:39.550Z,168
2017-01-16T18:58:50.342Z,192
2017-01-16T19:00:15.611Z,208
2017-01-16T19:03:06.146Z,220
2017-01-16T19:04:16.933Z,224
2017-01-16T19:05:27.723Z,236
2017-01-16T19:06:38.514Z,240
2017-01-16T19:07:49.292Z,244
2017-01-16T19:09:00.086Z,248
2017-01-16T19:10:10.888Z,244
2017-01-16T19:11:21.683Z,244
2017-01-16T19:12:32.472Z,244
2017-01-16T19:13:43.258Z,240
2017-01-16T19:14:54.282Z,236
2017-01-16T19:16:05.875Z,236
2017-01-16T19:17:17.470Z,232
2017-01-16T19:18:28.265Z,228
2017-01-16T19:19:39.064Z,216
2017-01-16T19:20:49.850Z,204
2017-01-16T19:22:00.650Z,184
2017-01-16T19:23:11.472Z,164
2017-01-16T19:24:22.260Z,144
2017-01-16T19:25:33.949Z,128
2017-01-16T19:26:44.745Z,116
2017-01-16T19:27:55.543Z,108
2017-01-16T19:29:06.343Z,100
2017-01-16T19:30:17.156Z,96
2017-01-16T19:31:27.947Z,88
2017-01-16T19:32:38.737Z,84
2017-01-16T19:33:49.527Z,80
2017-01-16T19:35:00.313Z,84
2017-01-16T19:36:11.102Z,84
2017-01-16T19:37:21.887Z,88
2017-01-16T19:38:32.674Z,92
2017-01-16T19:39:43.462Z,92
2017-01-16T19:40:54.251Z,92
2017-01-16T19:42:05.034Z,88
2017-01-16T19:43:16.121Z,88
2017-01-16T19:44:26.909Z,88
2017-01-16T19:47:02.961Z,84
2017-01-16T19:48:14.051Z,84
2017-01-16T19:49:24.844Z,84
2017-01-16T19:50:35.632Z,84
2017-01-16T19:51:46.423Z,84
2017-01-16T19:52:57.211Z,80
2017-01-16T19:54:08.000Z,76
2017-01-16T19:55:18.787Z,72
2017-01-16T19:56:29.576Z,64
2017-01-16T19:57:40.357Z,60
2017-01-16T19:58:51.146Z,60
2017-01-16T20:00:02.233Z,60
2017-01-16T20:01:13.020Z,64
2017-01-16T20:02:23.812Z,64
2017-01-16T20:03:34.596Z,64
2017-01-16T20:04:45.394Z,64
2017-01-16T20:06:10.654Z,64
2017-01-16T20:07:21.441Z,64
2017-01-16T20:08:32.230Z,60
2017-01-16T20:09:43.012Z,60
2017-01-16T20:10:54.104Z,56
2017-01-16T20:12:04.890Z,60
2017-01-16T20:13:15.674Z,56
2017-01-16T20:14:26.456Z,56
2017-01-16T20:15:37.241Z,56
2017-01-16T20:16:48.061Z,60
2017-01-16T20:17:59.450Z,60
2017-01-16T20:19:10.249Z,56
2017-01-16T20:20:21.040Z,56
2017-01-16T20:21:31.843Z,52
2017-01-16T20:22:42.980Z,52
2017-01-16T20:23:53.765Z,52
2017-01-16T20:25:04.551Z,48
2017-01-16T20:26:15.366Z,44
2017-01-16T20:27:26.150Z,40
2017-01-16T20:28:37.288Z,40
2017-01-16T20:29:48.076Z,36
2017-01-16T20:30:58.863Z,32
2017-01-16T20:32:09.668Z,36
2017-01-16T20:33:20.455Z,32
2017-01-16T20:34:31.244Z,32
2017-01-16T20:35:42.029Z,36
2017-01-16T20:36:52.814Z,32
2017-01-16T20:38:04.215Z,28
2017-01-16T20:39:15.010Z,28
2017-01-16T20:40:25.799Z,24
2017-01-16T20:41:37.195Z,24
2017-01-16T20:42:47.985Z,24
2017-01-16T20:43:58.779Z,20
2017-01-16T20:45:10.367Z,24
2017-01-16T20:46:21.157Z,20
2017-01-16T20:47:31.958Z,24
2017-01-16T20:48:42.772Z,20
2017-01-16T20:49:53.564Z,20
2017-01-16T20:51:04.358Z,20
2017-01-16T20:52:15.173Z,20
2017-01-16T20:53:25.963Z,20
2017-01-16T20:54:36.754Z,16
2017-01-16T20:55:47.546Z,16
2017-01-16T20:56:58.331Z,16
2017-01-16T20:58:09.470Z,12
2017-01-16T20:59:20.264Z,16
2017-01-16T21:00:31.054Z,12
2017-01-16T21:01:41.845Z,16
2017-01-16T21:02:52.634Z,12
2017-01-16T21:04:03.423Z,12
2017-01-16T21:05:14.211Z,12
2017-01-16T21:06:25.001Z,8
2017-01-16T21:07:35.787Z,12
2017-01-16T21:08:46.573Z,8
2017-01-16T21:09:57.615Z,8
2017-01-16T21:11:08.435Z,12
2017-01-16T21:12:19.258Z,12
2017-01-16T21:13:30.047Z,8
2017-01-16T21:14:40.838Z,8
2017-01-16T21:15:51.622Z,8
2017-01-16T21:17:02.406Z,12
2017-01-16T21:18:13.815Z,8
2017-01-16T21:19:24.607Z,8
2017-01-16T21:20:35.397Z,8
2017-01-16T21:21:46.438Z,4
2017-01-16T21:22:57.225Z,4
2017-01-16T21:24:08.017Z,4
2017-01-16T21:25:18.808Z,4
2017-01-16T21:26:44.422Z,4
2017-01-16T21:27:55.211Z,4
2017-01-16T21:29:06.002Z,4
2017-01-16T21:30:16.822Z,4
2017-01-16T21:31:27.605Z,4
2017-01-16T21:32:38.639Z,0
2017-01-16T21:35:14.710Z,12
2017-01-16T21:36:25.511Z,16
2017-01-16T21:37:36.660Z,8
2017-01-16T21:38:47.466Z,16
2017-01-16T21:39:58.257Z,12
2017-01-16T21:41:09.057Z,12
2017-01-16T21:42:19.847Z,16
2017-01-16T21:43:30.654Z,16
2017-01-16T21:44:41.460Z,16
2017-01-16T21:45:52.262Z,12
2017-01-16T21:47:03.057Z,12
2017-01-16T21:48:13.860Z,12
2017-01-16T21:49:25.640Z,12
2017-01-16T21:50:36.449Z,12
2017-01-16T21:51:47.253Z,12
2017-01-16T21:52:58.064Z,12
2017-01-16T21:54:08.874Z,12
2017-01-16T21:55:19.675Z,12
2017-01-16T21:56:30.477Z,12
2017-01-16T21:57:41.283Z,12
2017-01-16T21:58:52.087Z,12
2017-01-16T22:00:17.713Z,12
2017-01-16T22:01:28.519Z,12
2017-01-16T22:02:39.331Z,12
2017-01-16T22:03:50.135Z,12
2017-01-16T22:05:00.933Z,12
2017-01-16T22:06:12.682Z,12
2017-01-16T22:07:23.470Z,12
2017-01-16T22:09:59.526Z,12
2017-01-16T22:11:10.521Z,12
2017-01-16T22:12:21.326Z,12
2017-01-16T22:13:46.595Z,12
2017-01-16T22:15:11.859Z,12
2017-01-16T22:17:47.905Z,12
2017-01-16T22:18:58.709Z,12
2017-01-16T22:20:09.509Z,12
2017-01-16T22:21:20.502Z,12
2017-01-16T22:22:31.289Z,12
2017-01-16T22:23:42.085Z,12
2017-01-16T22:24:52.874Z,12
2017-01-16T22:26:03.687Z,12
2017-01-16T22:27:29.203Z,12
2017-01-16T22:28:40.003Z,12
2017-01-16T22:29:50.806Z,12
2017-01-16T22:31:01.601Z,12
2017-01-16T22:32:12.593Z,12
2017-01-16T22:33:23.385Z,12
2017-01-16T22:34:34.175Z,12
2017-01-16T22:35:44.968Z,12
2017-01-16T22:36:55.758Z,12
2017-01-16T22:38:06.553Z,8
2017-01-16T22:39:17.347Z,8
2017-01-16T22:40:28.132Z,12
2017-01-16T22:41:38.949Z,12
2017-01-16T22:42:49.734Z,8
2017-01-16T22:44:00.533Z,12
2017-01-16T22:45:11.323Z,12
2017-01-16T22:46:22.116Z,12
2017-01-16T22:47:32.908Z,8
2017-01-16T22:48:43.697Z,12
2017-01-16T22:49:54.833Z,12
2017-01-16T22:51:05.641Z,12
2017-01-16T22:52:16.434Z,12
2017-01-16T22:53:27.247Z,12
2017-01-16T22:54:38.035Z,12
2017-01-16T22:55:48.819Z,12
2017-01-16T22:56:59.607Z,12
2017-01-16T22:58:10.391Z,4
2017-01-16T22:59:21.175Z,12
2017-01-16T23:00:31.966Z,12
2017-01-16T23:01:42.753Z,12
2017-01-16T23:02:53.544Z,12
2017-01-16T23:04:04.935Z,12
2017-01-16T23:05:15.723Z,12
2017-01-16T23:06:26.530Z,12
2017-01-16T23:07:37.677Z,12
2017-01-16T23:08:48.470Z,12
2017-01-16T23:09:59.959Z,8
2017-01-16T23:11:10.769Z,4
2017-01-16T23:12:21.568Z,4
2017-01-16T23:13:32.710Z,16
2017-01-16T23:14:43.495Z,12
2017-01-16T23:15:54.290Z,12
2017-01-16T23:17:05.080Z,12
2017-01-16T23:18:15.872Z,12
2017-01-16T23:19:26.925Z,12
2017-01-16T23:20:37.743Z,12
2017-01-16T23:21:48.548Z,12
2017-01-16T23:22:59.949Z,12
2017-01-16T23:24:10.743Z,12
2017-01-16T23:25:21.532Z,4
2017-01-16T23:26:32.329Z,12
2017-01-16T23:27:43.128Z,12
2017-01-16T23:28:53.920Z,12
2017-01-16T23:30:04.714Z,4
2017-01-16T23:31:15.853Z,12
2017-01-16T23:32:26.644Z,12
2017-01-16T23:33:37.434Z,8
2017-01-16T23:34:48.240Z,12
2017-01-16T23:36:13.772Z,12
2017-01-16T23:37:25.194Z,12
2017-01-16T23:38:36.000Z,12
2017-01-16T23:40:01.289Z,12
2017-01-16T23:41:12.090Z,4
2017-01-16T23:42:22.935Z,12
2017-01-16T23:43:33.742Z,12
2017-01-16T23:44:44.602Z,12
2017-01-16T23:45:55.403Z,12
2017-01-16T23:47:06.557Z,12
2017-01-16T23:48:17.388Z,12
2017-01-16T23:49:28.199Z,12
2017-01-16T23:50:39.041Z,12
2017-01-16T23:52:04.338Z,12
2017-01-16T23:53:15.124Z,12
2017-01-16T23:54:25.924Z,12
2017-01-16T23:55:36.728Z,12
2017-01-16T23:56:47.563Z,4
2017-01-16T23:57:58.363Z,12
2017-01-16T23:59:09.164Z,12
